createdAt,value
2019-01-15T00:02:29.998Z,93851.25
2019-01-15T00:05:01.400Z,93856.80
2019-01-15T00:07:32.636Z,93856.63
2019-01-15T00:10:04.895Z,93866.09
2019-01-15T00:12:36.187Z,93866.09
2019-01-15T00:15:08.345Z,93860.38
2019-01-15T00:17:39.602Z,93874.51
2019-01-15T00:20:10.923Z,93877.11
2019-01-15T00:22:42.375Z,93893.77
2019-01-15T00:25:13.634Z,93895.66
2019-01-15T00:27:45.000Z,93899.27
2019-01-15T00:30:17.630Z,93917.67
2019-01-15T00:32:49.966Z,93919.92
2019-01-15T00:35:22.436Z,93919.92
2019-01-15T00:37:53.635Z,93932.70
2019-01-15T00:40:25.007Z,93932.70
2019-01-15T00:42:56.213Z,93925.11
2019-01-15T00:45:27.489Z,93948.77
2019-01-15T00:47:58.636Z,93942.25
2019-01-15T00:50:29.786Z,93941.89
2019-01-15T00:53:01.439Z,93949.81
2019-01-15T00:55:32.565Z,93945.11
2019-01-15T00:58:04.020Z,93951.09
2019-01-15T01:00:35.393Z,93949.94
2019-01-15T01:03:06.828Z,93959.17
2019-01-15T01:05:38.015Z,93946.72
2019-01-15T01:08:09.250Z,93943.91
2019-01-15T01:10:40.493Z,93956.55
2019-01-15T01:13:11.698Z,93954.60
2019-01-15T01:15:43.985Z,93949.80
2019-01-15T01:18:15.278Z,93947.07
2019-01-15T01:20:46.455Z,93947.07
2019-01-15T01:23:17.740Z,93947.11
2019-01-15T01:25:48.939Z,93941.66
2019-01-15T01:28:20.148Z,93949.87
2019-01-15T01:30:51.327Z,93942.33
2019-01-15T01:33:22.514Z,93945.23
2019-01-15T01:35:53.856Z,93943.71
2019-01-15T01:38:25.212Z,93947.17
2019-01-15T01:40:57.551Z,93936.17
2019-01-15T01:43:28.760Z,93935.38
2019-01-15T01:45:59.881Z,93932.55
2019-01-15T01:48:31.173Z,93937.27
2019-01-15T01:51:02.444Z,93924.81
2019-01-15T01:53:33.605Z,93936.75
2019-01-15T01:56:04.907Z,93938.50
2019-01-15T01:58:36.157Z,93937.89
2019-01-15T02:01:07.542Z,93941.09
2019-01-15T02:03:38.893Z,93943.59
2019-01-15T02:06:10.165Z,93938.67
2019-01-15T02:08:41.501Z,93944.33
2019-01-15T02:11:12.592Z,93951.80
2019-01-15T02:13:44.801Z,93956.42
2019-01-15T02:16:16.178Z,93949.60
2019-01-15T02:18:47.466Z,93955.33
2019-01-15T02:21:18.850Z,93976.44
2019-01-15T02:23:50.226Z,93975.67
2019-01-15T02:26:21.630Z,93970.84
2019-01-15T02:28:52.813Z,93977.47
2019-01-15T02:31:24.084Z,93978.13
2019-01-15T02:33:55.273Z,93970.54
2019-01-15T02:36:26.571Z,93984.20
2019-01-15T02:38:57.698Z,93984.81
2019-01-15T02:41:29.081Z,93985.78
2019-01-15T02:44:00.284Z,93987.05
2019-01-15T02:46:31.396Z,93987.05
2019-01-15T02:49:02.635Z,93987.98
2019-01-15T02:51:33.807Z,93996.88
2019-01-15T02:54:05.221Z,93998.41
2019-01-15T02:56:36.365Z,93998.13
2019-01-15T02:59:07.697Z,94009.75
2019-01-15T03:01:39.062Z,94008.56
2019-01-15T03:04:10.303Z,94010.63
2019-01-15T03:06:42.646Z,94006.19
2019-01-15T03:09:13.927Z,94007.91
2019-01-15T03:11:45.247Z,94005.36
2019-01-15T03:14:16.341Z,94016.38
2019-01-15T03:16:47.495Z,94025.37
2019-01-15T03:19:18.697Z,94029.33
2019-01-15T03:21:49.900Z,94039.95
2019-01-15T03:24:21.221Z,94039.95
2019-01-15T03:26:52.486Z,94030.72
2019-01-15T03:29:23.814Z,94043.15
2019-01-15T03:31:55.023Z,94039.98
2019-01-15T03:34:26.347Z,94034.67
2019-01-15T03:36:57.557Z,94044.64
2019-01-15T03:39:28.770Z,94041.78
2019-01-15T03:42:00.083Z,94040.97
2019-01-15T03:44:31.204Z,94036.95
2019-01-15T03:47:02.436Z,94048.86
2019-01-15T03:49:33.700Z,94053.81
2019-01-15T03:52:05.173Z,94058.41
2019-01-15T03:54:36.429Z,94060.64
2019-01-15T03:57:07.527Z,94059.17
2019-01-15T03:59:38.829Z,94066.00
2019-01-15T04:02:10.884Z,94068.09
2019-01-15T04:04:42.673Z,94076.59
2019-01-15T04:07:14.098Z,94083.75
2019-01-15T04:09:45.403Z,94094.45
2019-01-15T04:12:16.677Z,94108.28
2019-01-15T04:14:47.847Z,94109.24
2019-01-15T04:17:19.115Z,94116.05
2019-01-15T04:19:50.293Z,94112.06
2019-01-15T04:22:21.432Z,94120.08
2019-01-15T04:24:52.640Z,94121.98
2019-01-15T04:27:23.947Z,94125.16
2019-01-15T04:29:55.029Z,94122.69
2019-01-15T04:32:26.172Z,94126.50
2019-01-15T04:34:58.270Z,94131.34
2019-01-15T04:37:29.526Z,94140.58
2019-01-15T04:40:00.691Z,94135.02
2019-01-15T04:42:31.938Z,94136.14
2019-01-15T04:45:03.253Z,94128.97
2019-01-15T04:47:34.418Z,94131.08
2019-01-15T04:50:07.242Z,94125.98
2019-01-15T04:52:39.779Z,94128.53
2019-01-15T04:55:11.633Z,94127.73
2019-01-15T04:57:43.070Z,94129.53
2019-01-15T05:00:16.538Z,94133.78
2019-01-15T05:02:47.987Z,94137.18
2019-01-15T05:05:20.510Z,94130.02
2019-01-15T05:07:51.775Z,94122.55
2019-01-15T05:10:23.247Z,94129.59
2019-01-15T05:12:54.452Z,94117.14
2019-01-15T05:15:25.970Z,94127.59
2019-01-15T05:17:56.933Z,94117.08
2019-01-15T05:20:28.049Z,94118.08
2019-01-15T05:22:59.200Z,94110.48
2019-01-15T05:25:30.493Z,94107.94
2019-01-15T05:28:01.739Z,94111.13
2019-01-15T05:30:33.134Z,94114.95
2019-01-15T05:33:04.462Z,94123.23
2019-01-15T05:35:36.647Z,94122.55
2019-01-15T05:38:07.962Z,94129.53
2019-01-15T05:40:39.255Z,94134.74
2019-01-15T05:43:10.326Z,94146.81
2019-01-15T05:45:44.095Z,94148.08
2019-01-15T05:48:28.622Z,94160.66
2019-01-15T05:51:21.904Z,94173.23
2019-01-15T05:53:52.893Z,94175.94
2019-01-15T05:56:24.192Z,94184.70
2019-01-15T05:58:55.411Z,94179.45
2019-01-15T06:01:26.410Z,94173.55
2019-01-15T06:03:57.629Z,94179.45
2019-01-15T06:06:28.806Z,94193.78
2019-01-15T06:09:00.079Z,94189.70
2019-01-15T06:11:31.398Z,94183.64
2019-01-15T06:14:02.402Z,94173.06
2019-01-15T06:16:33.605Z,94197.02
2019-01-15T06:19:04.820Z,94203.02
2019-01-15T06:21:36.214Z,94212.30
2019-01-15T06:24:07.462Z,94214.53
2019-01-15T06:26:38.561Z,94218.75
2019-01-15T06:29:10.147Z,94222.25
2019-01-15T06:31:41.431Z,94233.05
2019-01-15T06:34:13.128Z,94238.89
2019-01-15T06:36:44.370Z,94247.22
2019-01-15T06:39:15.540Z,94247.69
2019-01-15T06:41:47.730Z,94251.36
2019-01-15T06:44:19.076Z,94260.39
2019-01-15T06:46:52.439Z,94256.81
2019-01-15T06:49:23.454Z,94256.41
2019-01-15T06:51:54.743Z,94246.84
2019-01-15T06:54:25.935Z,94244.50
2019-01-15T06:56:57.153Z,94255.81
2019-01-15T06:59:28.402Z,94263.89
2019-01-15T07:01:59.583Z,94265.64
2019-01-15T07:04:30.675Z,94278.91
2019-01-15T07:07:01.972Z,94289.55
2019-01-15T07:09:33.296Z,94297.19
2019-01-15T07:12:04.749Z,94298.70
2019-01-15T07:14:35.756Z,94309.77
2019-01-15T07:17:07.016Z,94315.66
2019-01-15T07:19:38.289Z,94312.25
2019-01-15T07:22:09.584Z,94315.33
2019-01-15T07:24:40.883Z,94312.70
2019-01-15T07:27:12.129Z,94320.89
2019-01-15T07:29:43.546Z,94321.59
2019-01-15T07:32:14.791Z,94319.35
2019-01-15T07:34:45.821Z,94319.35
2019-01-15T07:37:17.125Z,94326.14
2019-01-15T07:39:48.281Z,94346.95
2019-01-15T07:42:19.586Z,94331.07
2019-01-15T07:44:50.611Z,94331.07
2019-01-15T07:47:21.962Z,94345.08
2019-01-15T07:49:53.237Z,94344.97
2019-01-15T07:52:24.427Z,94344.97
2019-01-15T07:54:55.507Z,94348.94
2019-01-15T07:57:26.839Z,94354.39
2019-01-15T07:59:57.973Z,94361.33
2019-01-15T08:02:29.142Z,94355.02
2019-01-15T08:05:00.305Z,94371.70
2019-01-15T08:07:31.494Z,94348.45
2019-01-15T08:10:02.819Z,94360.10
2019-01-15T08:12:34.075Z,94354.47
2019-01-15T08:15:06.440Z,94362.15
2019-01-15T08:17:37.940Z,94367.03
2019-01-15T08:20:09.984Z,94382.91
2019-01-15T08:22:43.242Z,94386.14
2019-01-15T08:25:14.788Z,94376.33
2019-01-15T08:27:46.058Z,94393.02
2019-01-15T08:30:28.742Z,94394.56
2019-01-15T08:32:59.886Z,94390.86
2019-01-15T08:35:31.607Z,94381.66
2019-01-15T08:38:02.891Z,94370.23
2019-01-15T08:40:33.997Z,94384.14
2019-01-15T08:43:05.601Z,94378.36
2019-01-15T08:45:36.768Z,94381.77
2019-01-15T08:48:22.097Z,94382.76
2019-01-15T08:50:54.062Z,94386.84
2019-01-15T08:53:25.873Z,94386.63
2019-01-15T08:55:58.375Z,94383.36
2019-01-15T08:58:29.564Z,94368.81
2019-01-15T09:01:00.803Z,94387.64
2019-01-15T09:03:31.996Z,94381.20
2019-01-15T09:06:03.339Z,94371.82
2019-01-15T09:08:34.823Z,94364.73
2019-01-15T09:11:06.420Z,94360.50
2019-01-15T09:13:37.846Z,94355.95
2019-01-15T09:16:09.100Z,94364.20
2019-01-15T09:18:40.463Z,94365.23
2019-01-15T09:21:11.729Z,94363.70
2019-01-15T09:23:42.975Z,94361.34
2019-01-15T09:26:15.420Z,94365.02
2019-01-15T09:28:46.780Z,94363.94
2019-01-15T09:31:18.053Z,94354.55
2019-01-15T09:33:49.408Z,94352.73
2019-01-15T09:36:20.528Z,94353.02
2019-01-15T09:38:51.804Z,94337.61
2019-01-15T09:41:22.956Z,94350.89
2019-01-15T09:43:54.055Z,94352.20
2019-01-15T09:46:25.486Z,94350.04
2019-01-15T09:48:56.551Z,94355.99
2019-01-15T09:51:27.753Z,94346.72
2019-01-15T09:53:59.120Z,94354.20
2019-01-15T09:56:30.284Z,94349.66
2019-01-15T09:59:01.636Z,94343.92
2019-01-15T10:01:32.736Z,94349.86
2019-01-15T10:04:04.005Z,94344.00
2019-01-15T10:06:36.308Z,94344.00
2019-01-15T10:09:09.893Z,94341.45
2019-01-15T10:11:41.023Z,94348.81
2019-01-15T10:14:12.211Z,94349.42
2019-01-15T10:16:43.339Z,94349.67
2019-01-15T10:19:14.585Z,94346.75
2019-01-15T10:21:46.842Z,94338.84
2019-01-15T10:24:18.029Z,94334.42
2019-01-15T10:26:49.222Z,94338.11
2019-01-15T10:29:22.229Z,94329.69
2019-01-15T10:32:37.488Z,94347.60
2019-01-15T10:35:22.408Z,94343.38
2019-01-15T10:37:53.608Z,94333.41
2019-01-15T10:40:26.053Z,94343.03
2019-01-15T10:42:57.225Z,94320.88
2019-01-15T10:45:28.579Z,94325.54
2019-01-15T10:47:59.832Z,94326.58
2019-01-15T10:50:30.970Z,94325.70
2019-01-15T10:53:02.106Z,94329.95
2019-01-15T10:55:33.465Z,94333.37
2019-01-15T10:58:04.838Z,94329.69
2019-01-15T11:00:36.250Z,94335.58
2019-01-15T11:03:07.407Z,94324.34
2019-01-15T11:05:38.710Z,94321.84
2019-01-15T11:08:10.032Z,94326.32
2019-01-15T11:10:41.348Z,94333.39
2019-01-15T11:13:12.664Z,94332.06
2019-01-15T11:15:43.775Z,94329.42
2019-01-15T11:18:16.105Z,94333.54
2019-01-15T11:20:47.354Z,94335.37
2019-01-15T11:23:18.590Z,94331.00
2019-01-15T11:25:51.360Z,94335.69
2019-01-15T11:28:22.684Z,94330.19
2019-01-15T11:30:54.023Z,94341.19
2019-01-15T11:33:25.424Z,94335.19
2019-01-15T11:35:56.782Z,94345.23
2019-01-15T11:38:28.118Z,94345.14
2019-01-15T11:40:59.447Z,94339.90
2019-01-15T11:43:30.634Z,94348.27
2019-01-15T11:46:01.966Z,94354.03
2019-01-15T11:48:33.166Z,94354.56
2019-01-15T11:51:04.446Z,94358.47
2019-01-15T11:53:35.617Z,94355.84
2019-01-15T11:56:07.017Z,94360.31
2019-01-15T11:58:39.239Z,94359.25
2019-01-15T12:01:19.337Z,94372.57
2019-01-15T12:04:08.306Z,94366.14
2019-01-15T12:07:07.712Z,94385.39
2019-01-15T12:09:56.743Z,94380.73
2019-01-15T12:13:05.329Z,94370.21
2019-01-15T12:15:55.319Z,94383.44
2019-01-15T12:18:37.805Z,94385.79
2019-01-15T12:21:42.964Z,94391.87
2019-01-15T12:24:31.595Z,94391.47
2019-01-15T12:27:12.166Z,94396.53
2019-01-15T12:30:05.326Z,94398.84
2019-01-15T12:32:56.396Z,94389.77
2019-01-15T12:35:41.956Z,94399.04
2019-01-15T12:38:30.598Z,94399.04
2019-01-15T12:41:19.503Z,94412.95
2019-01-15T12:44:21.578Z,94412.95
2019-01-15T12:47:06.319Z,94396.95
2019-01-15T12:49:55.143Z,94417.94
2019-01-15T12:52:44.026Z,94417.94
2019-01-15T12:55:47.449Z,94420.27
2019-01-15T12:58:36.082Z,94422.28
2019-01-15T13:01:36.026Z,94422.28
2019-01-15T13:04:26.280Z,94421.87
2019-01-15T13:07:16.551Z,94421.87
2019-01-15T13:10:22.933Z,94441.84
2019-01-15T13:13:13.043Z,94443.69
2019-01-15T13:16:03.005Z,94447.62
2019-01-15T13:18:53.079Z,94447.62
2019-01-15T13:21:47.756Z,94445.61
2019-01-15T13:24:35.217Z,94446.72
2019-01-15T13:27:18.667Z,94455.98
2019-01-15T13:30:08.831Z,94455.98
2019-01-15T13:33:13.006Z,94460.77
2019-01-15T13:36:04.590Z,94472.10
2019-01-15T13:38:57.883Z,94472.10
2019-01-15T13:41:45.435Z,94469.45
2019-01-15T13:44:34.335Z,94477.04
2019-01-15T13:47:36.452Z,94479.91
2019-01-15T13:50:36.827Z,94479.91
2019-01-15T13:53:36.051Z,94479.61
2019-01-15T13:56:26.241Z,94485.16
2019-01-15T13:59:11.610Z,94498.30
2019-01-15T14:02:10.645Z,94489.62
2019-01-15T14:05:03.760Z,94497.23
2019-01-15T14:08:03.117Z,94501.82
2019-01-15T14:10:59.410Z,94496.60
2019-01-15T14:13:48.115Z,94498.63
2019-01-15T14:16:50.511Z,94509.58
2019-01-15T14:19:40.696Z,94510.64
2019-01-15T14:22:29.911Z,94510.64
2019-01-15T14:25:26.243Z,94513.93
2019-01-15T14:28:22.267Z,94521.05
2019-01-15T14:31:11.171Z,94527.14
2019-01-15T14:34:07.898Z,94526.56
2019-01-15T14:36:53.768Z,94532.62
2019-01-15T14:39:44.407Z,94524.23
2019-01-15T14:42:23.227Z,94523.11
2019-01-15T14:45:16.024Z,94531.27
2019-01-15T14:48:16.832Z,94532.06
2019-01-15T14:51:22.136Z,94526.95
2019-01-15T14:54:21.209Z,94535.58
2019-01-15T14:57:14.634Z,94529.20
2019-01-15T15:00:07.445Z,94531.78
2019-01-15T15:02:57.985Z,94535.92
2019-01-15T15:05:50.912Z,94531.31
2019-01-15T15:08:40.001Z,94534.48
2019-01-15T15:11:33.241Z,94548.97
2019-01-15T15:14:23.599Z,94553.59
2019-01-15T15:17:18.783Z,94548.34
2019-01-15T15:20:09.122Z,94563.15
2019-01-15T15:23:05.128Z,94557.38
2019-01-15T15:26:04.386Z,94565.81
2019-01-15T15:28:53.521Z,94575.22
2019-01-15T15:32:01.931Z,94582.06
2019-01-15T15:34:44.218Z,94578.53
2019-01-15T15:37:28.277Z,94581.42
2019-01-15T15:40:16.815Z,94584.27
2019-01-15T15:43:05.480Z,94593.03
2019-01-15T15:45:58.408Z,94608.78
2019-01-15T15:48:57.551Z,94609.73
2019-01-15T15:51:47.472Z,94619.72
2019-01-15T15:54:47.621Z,94626.06
2019-01-15T15:57:40.876Z,94632.27
2019-01-15T16:00:32.127Z,94626.86
2019-01-15T16:03:25.120Z,94626.53
2019-01-15T16:06:07.004Z,94622.42
2019-01-15T16:08:49.545Z,94627.48
2019-01-15T16:11:30.823Z,94630.31
2019-01-15T16:14:18.064Z,94642.50
2019-01-15T16:16:58.531Z,94639.80
2019-01-15T16:19:48.546Z,94650.97
2019-01-15T16:22:30.633Z,94658.09
2019-01-15T16:25:36.212Z,94658.37
2019-01-15T16:28:30.316Z,94676.86
2019-01-15T16:31:29.726Z,94683.50
2019-01-15T16:34:23.522Z,94679.58
2019-01-15T16:37:16.559Z,94690.98
2019-01-15T16:40:06.726Z,94692.62
2019-01-15T16:42:48.638Z,94708.03
2019-01-15T16:45:39.954Z,94707.84
2019-01-15T16:48:32.948Z,94704.41
2019-01-15T16:51:21.906Z,94711.23
2019-01-15T16:54:24.446Z,94714.06
2019-01-15T16:57:14.212Z,94713.59
2019-01-15T17:00:22.667Z,94722.16
2019-01-15T17:03:18.801Z,94730.66
2019-01-15T17:06:14.818Z,94745.38
2019-01-15T17:09:12.532Z,94737.89
2019-01-15T17:11:56.443Z,94742.85
2019-01-15T17:14:45.078Z,94751.13
2019-01-15T17:17:34.650Z,94758.98
2019-01-15T17:20:26.302Z,94762.30
2019-01-15T17:23:13.828Z,94781.18
2019-01-15T17:26:06.977Z,94785.94
2019-01-15T17:29:00.267Z,94791.27
2019-01-15T17:31:53.708Z,94798.78
2019-01-15T17:34:46.660Z,94811.82
2019-01-15T17:37:45.625Z,94807.09
2019-01-15T17:40:30.144Z,94820.34
2019-01-15T17:43:18.870Z,94817.87
2019-01-15T17:46:08.065Z,94820.34
2019-01-15T17:49:10.715Z,94815.95
2019-01-15T17:52:06.876Z,94820.09
2019-01-15T17:54:55.534Z,94827.69
2019-01-15T17:57:58.149Z,94831.69
2019-01-15T18:00:48.256Z,94828.41
2019-01-15T18:03:29.820Z,94836.50
2019-01-15T18:06:22.697Z,94842.06
2019-01-15T18:09:13.697Z,94839.16
2019-01-15T18:12:21.759Z,94853.75
2019-01-15T18:15:11.902Z,94852.95
2019-01-15T18:18:08.021Z,94863.69
2019-01-15T18:20:57.837Z,94868.80
2019-01-15T18:23:46.905Z,94873.05
2019-01-15T18:26:41.455Z,94877.13
2019-01-15T18:29:43.583Z,94879.70
2019-01-15T18:32:33.743Z,94887.86
2019-01-15T18:35:27.465Z,94887.58
2019-01-15T18:38:16.190Z,94892.01
2019-01-15T18:41:09.360Z,94880.00
2019-01-15T18:44:05.341Z,94878.57
2019-01-15T18:46:55.943Z,94875.86
2019-01-15T18:50:01.786Z,94883.88
2019-01-15T18:52:51.942Z,94883.33
2019-01-15T18:55:42.144Z,94892.09
2019-01-15T18:58:25.654Z,94895.76
2019-01-15T19:01:14.466Z,94899.32
2019-01-15T19:04:03.180Z,94892.02
2019-01-15T19:07:08.330Z,94886.57
2019-01-15T19:09:57.061Z,94906.85
2019-01-15T19:12:56.165Z,94904.25
2019-01-15T19:15:49.163Z,94902.70
2019-01-15T19:18:39.269Z,94910.06
2019-01-15T19:21:21.143Z,94929.75
2019-01-15T19:24:29.503Z,94937.82
2019-01-15T19:27:19.667Z,94942.91
2019-01-15T19:30:13.889Z,94941.53
2019-01-15T19:33:09.915Z,94936.34
2019-01-15T19:36:03.998Z,94947.95
2019-01-15T19:38:56.074Z,94955.52
2019-01-15T19:41:45.108Z,94958.86
2019-01-15T19:44:47.398Z,94959.34
2019-01-15T19:47:36.632Z,94963.14
2019-01-15T19:50:26.805Z,94961.88
2019-01-15T19:53:12.311Z,94965.69
2019-01-15T19:56:11.546Z,94965.98
2019-01-15T19:59:01.809Z,94959.81
2019-01-15T20:01:55.048Z,94956.60
2019-01-15T20:04:45.163Z,94951.62
2019-01-15T20:07:53.584Z,94945.73
2019-01-15T20:10:37.781Z,94952.89
2019-01-15T20:13:26.263Z,94945.95
2019-01-15T20:16:22.436Z,94950.11
2019-01-15T20:19:11.039Z,94958.17
2019-01-15T20:21:59.945Z,94957.64
2019-01-15T20:24:52.934Z,94959.14
2019-01-15T20:27:43.372Z,94965.56
2019-01-15T20:30:42.252Z,94964.06
2019-01-15T20:33:32.396Z,94959.45
2019-01-15T20:36:22.589Z,94957.73
2019-01-15T20:39:30.976Z,94954.36
2019-01-15T20:42:19.931Z,94954.30
2019-01-15T20:45:12.612Z,94952.69
2019-01-15T20:48:01.538Z,94947.34
2019-01-15T20:51:03.632Z,94942.69
2019-01-15T20:53:51.198Z,94943.28
2019-01-15T20:56:39.774Z,94951.19
2019-01-15T20:59:32.655Z,94939.11
2019-01-15T21:02:25.496Z,94944.56
2019-01-15T21:05:24.743Z,94947.44
2019-01-15T21:08:23.709Z,94941.59
2019-01-15T21:11:12.481Z,94941.81
2019-01-15T21:14:11.358Z,94950.11
2019-01-15T21:17:00.239Z,94950.95
2019-01-15T21:19:49.152Z,94955.02
2019-01-15T21:22:39.342Z,94960.20
2019-01-15T21:25:19.594Z,94956.53
2019-01-15T21:28:10.835Z,94961.98
2019-01-15T21:30:55.362Z,94966.47
2019-01-15T21:33:51.440Z,94973.39
2019-01-15T21:36:41.522Z,94977.94
2019-01-15T21:39:49.843Z,94995.34
2019-01-15T21:42:38.403Z,94989.62
2019-01-15T21:45:31.467Z,95001.97
2019-01-15T21:48:36.736Z,95000.98
2019-01-15T21:51:27.062Z,95003.91
2019-01-15T21:54:13.578Z,94998.14
2019-01-15T21:57:08.366Z,95000.87
2019-01-15T22:00:05.559Z,95000.41
2019-01-15T22:03:10.004Z,94993.67
2019-01-15T22:06:12.580Z,94990.77
2019-01-15T22:09:02.707Z,94987.28
2019-01-15T22:12:06.022Z,94984.32
2019-01-15T22:14:56.145Z,94979.80
2019-01-15T22:17:47.576Z,94980.81
2019-01-15T22:20:43.938Z,94976.17
2019-01-15T22:23:28.533Z,94982.02
2019-01-15T22:26:24.653Z,94970.77
2019-01-15T22:29:32.959Z,94965.25
2019-01-15T22:32:14.499Z,94963.11
2019-01-15T22:35:13.727Z,94965.59
2019-01-15T22:38:03.792Z,94951.84
2019-01-15T22:40:59.945Z,94957.83
2019-01-15T22:43:50.021Z,94954.48
2019-01-15T22:46:45.164Z,94958.16
2019-01-15T22:49:47.406Z,94965.61
2019-01-15T22:52:45.022Z,94965.54
2019-01-15T22:55:33.290Z,94968.94
2019-01-15T22:58:23.542Z,94961.98
2019-01-15T23:01:29.757Z,94957.81
2019-01-15T23:04:18.138Z,94965.66
2019-01-15T23:07:14.337Z,94959.38
2019-01-15T23:10:13.427Z,94972.28
2019-01-15T23:13:13.445Z,94973.92
2019-01-15T23:16:06.740Z,94975.57
2019-01-15T23:19:15.039Z,94981.86
2019-01-15T23:21:58.602Z,94973.89
2019-01-15T23:24:47.046Z,94971.02
2019-01-15T23:27:37.262Z,94978.98
2019-01-15T23:30:30.316Z,94978.11
2019-01-15T23:33:28.061Z,94968.86
2019-01-15T23:36:27.095Z,94963.54
2019-01-15T23:39:36.707Z,94960.09
2019-01-15T23:42:32.618Z,94954.52
2019-01-15T23:45:37.853Z,94959.28
2019-01-15T23:48:27.893Z,94959.90
2019-01-15T23:51:18.965Z,94966.41
2019-01-15T23:54:08.889Z,94973.69
2019-01-15T23:57:00.583Z,94978.11
2019-01-15T23:59:51.615Z,94982.65
